METAR Data
IDs: Format: Raw Decoded Include TAF

Data at: 0306 UTC 25 Feb 2021

LFMU 250300Z AUTO 03008KT 9999 OVC014 10/09 Q1031 TEMPO 0500 FG VV///